sensor_id;sensor_type;location;lat;lon;timestamp;temperature;humidity
18794;DHT22;29610;49.022;12.114;2022-10-31T00:01:38;8.80;99.90
18794;DHT22;29610;49.022;12.114;2022-10-31T00:04:07;8.80;99.90
18794;DHT22;29610;49.022;12.114;2022-10-31T00:06:35;8.80;99.90
18794;DHT22;29610;49.022;12.114;2022-10-31T00:09:04;8.80;99.90
18794;DHT22;29610;49.022;12.114;2022-10-31T00:11:33;8.60;99.90
18794;DHT22;29610;49.022;12.114;2022-10-31T00:14:03;8.40;99.90
18794;DHT22;29610;49.022;12.114;2022-10-31T00:16:32;8.30;99.90
18794;DHT22;29610;49.022;12.114;2022-10-31T00:19:02;8.20;99.90
18794;DHT22;29610;49.022;12.114;2022-10-31T00:21:32;8.20;99.90
18794;DHT22;29610;49.022;12.114;2022-10-31T00:24:03;8.10;99.90
18794;DHT22;29610;49.022;12.114;2022-10-31T00:26:32;8.10;99.90
18794;DHT22;29610;49.022;12.114;2022-10-31T00:29:02;8.10;99.90
18794;DHT22;29610;49.022;12.114;2022-10-31T00:31:31;8.10;99.90
18794;DHT22;29610;49.022;12.114;2022-10-31T00:34:00;8.10;99.90
18794;DHT22;29610;49.022;12.114;2022-10-31T00:36:30;8.10;99.90
18794;DHT22;29610;49.022;12.114;2022-10-31T00:38:59;8.10;99.90
18794;DHT22;29610;49.022;12.114;2022-10-31T00:41:28;8.20;99.90
18794;DHT22;29610;49.022;12.114;2022-10-31T00:43:57;8.20;99.90
18794;DHT22;29610;49.022;12.114;2022-10-31T00:46:27;8.30;99.90
18794;DHT22;29610;49.022;12.114;2022-10-31T00:48:55;8.30;99.90
18794;DHT22;29610;49.022;12.114;2022-10-31T00:51:24;8.20;99.90
18794;DHT22;29610;49.022;12.114;2022-10-31T00:53:52;8.30;99.90
18794;DHT22;29610;49.022;12.114;2022-10-31T00:56:21;8.20;99.90
18794;DHT22;29610;49.022;12.114;2022-10-31T00:58:49;8.20;99.90
18794;DHT22;29610;49.022;12.114;2022-10-31T01:01:19;8.10;99.90
18794;DHT22;29610;49.022;12.114;2022-10-31T01:03:51;8.20;99.90
18794;DHT22;29610;49.022;12.114;2022-10-31T01:06:19;8.00;99.90
18794;DHT22;29610;49.022;12.114;2022-10-31T01:08:48;8.00;99.90
18794;DHT22;29610;49.022;12.114;2022-10-31T01:11:20;8.00;99.90
18794;DHT22;29610;49.022;12.114;2022-10-31T01:13:51;8.00;99.90
18794;DHT22;29610;49.022;12.114;2022-10-31T01:16:23;7.90;99.90
18794;DHT22;29610;49.022;12.114;2022-10-31T01:18:56;7.80;99.90
18794;DHT22;29610;49.022;12.114;2022-10-31T01:21:28;7.70;99.90
18794;DHT22;29610;49.022;12.114;2022-10-31T01:23:58;7.70;99.90
18794;DHT22;29610;49.022;12.114;2022-10-31T01:26:30;7.70;99.90
18794;DHT22;29610;49.022;12.114;2022-10-31T01:29:02;7.70;99.90
18794;DHT22;29610;49.022;12.114;2022-10-31T01:31:36;7.80;99.90
18794;DHT22;29610;49.022;12.114;2022-10-31T01:34:08;7.80;99.90
18794;DHT22;29610;49.022;12.114;2022-10-31T01:36:41;8.00;99.90
18794;DHT22;29610;49.022;12.114;2022-10-31T01:39:13;8.00;99.90
18794;DHT22;29610;49.022;12.114;2022-10-31T01:41:45;8.40;99.90
18794;DHT22;29610;49.022;12.114;2022-10-31T01:44:51;7.70;99.90
18794;DHT22;29610;49.022;12.114;2022-10-31T01:47:38;7.80;99.90
18794;DHT22;29610;49.022;12.114;2022-10-31T01:50:20;8.10;99.90
18794;DHT22;29610;49.022;12.114;2022-10-31T01:52:55;7.80;99.90
18794;DHT22;29610;49.022;12.114;2022-10-31T01:55:26;7.30;99.90
18794;DHT22;29610;49.022;12.114;2022-10-31T01:58:00;7.90;99.90
18794;DHT22;29610;49.022;12.114;2022-10-31T02:00:32;7.90;99.90
18794;DHT22;29610;49.022;12.114;2022-10-31T02:03:01;7.90;99.90
18794;DHT22;29610;49.022;12.114;2022-10-31T02:05:32;7.90;99.90
18794;DHT22;29610;49.022;12.114;2022-10-31T02:08:05;7.90;99.90
18794;DHT22;29610;49.022;12.114;2022-10-31T02:10:40;7.90;99.90
18794;DHT22;29610;49.022;12.114;2022-10-31T02:13:11;8.30;99.90
18794;DHT22;29610;49.022;12.114;2022-10-31T02:15:49;7.80;99.90
18794;DHT22;29610;49.022;12.114;2022-10-31T02:18:21;7.80;99.90
18794;DHT22;29610;49.022;12.114;2022-10-31T02:21:00;7.80;99.90
18794;DHT22;29610;49.022;12.114;2022-10-31T02:24:09;7.80;99.90
18794;DHT22;29610;49.022;12.114;2022-10-31T02:27:06;7.80;99.90
18794;DHT22;29610;49.022;12.114;2022-10-31T02:30:03;7.70;99.90
18794;DHT22;29610;49.022;12.114;2022-10-31T02:32:46;7.70;99.90
18794;DHT22;29610;49.022;12.114;2022-10-31T02:35:40;7.70;99.90
18794;DHT22;29610;49.022;12.114;2022-10-31T02:38:25;7.70;99.90
18794;DHT22;29610;49.022;12.114;2022-10-31T02:41:06;7.70;99.90
18794;DHT22;29610;49.022;12.114;2022-10-31T02:43:57;7.20;99.90
18794;DHT22;29610;49.022;12.114;2022-10-31T02:46:37;7.60;99.90
18794;DHT22;29610;49.022;12.114;2022-10-31T02:49:20;7.60;99.90
18794;DHT22;29610;49.022;12.114;2022-10-31T02:51:55;7.50;99.90
18794;DHT22;29610;49.022;12.114;2022-10-31T02:54:25;7.50;99.90
18794;DHT22;29610;49.022;12.114;2022-10-31T02:56:59;7.50;99.90
18794;DHT22;29610;49.022;12.114;2022-10-31T02:59:33;7.40;99.90
18794;DHT22;29610;49.022;12.114;2022-10-31T03:02:42;7.50;99.90
18794;DHT22;29610;49.022;12.114;2022-10-31T03:05:37;7.40;99.90
18794;DHT22;29610;49.022;12.114;2022-10-31T03:08:27;7.30;99.90
18794;DHT22;29610;49.022;12.114;2022-10-31T03:11:05;7.40;99.90
18794;DHT22;29610;49.022;12.114;2022-10-31T03:13:43;7.30;99.90
18794;DHT22;29610;49.022;12.114;2022-10-31T03:16:17;7.30;99.90
18794;DHT22;29610;49.022;12.114;2022-10-31T03:18:55;7.40;99.90
18794;DHT22;29610;49.022;12.114;2022-10-31T03:21:32;7.30;99.90
18794;DHT22;29610;49.022;12.114;2022-10-31T03:24:06;7.30;99.90
18794;DHT22;29610;49.022;12.114;2022-10-31T03:26:42;7.20;99.90
18794;DHT22;29610;49.022;12.114;2022-10-31T03:29:17;7.20;99.90
18794;DHT22;29610;49.022;12.114;2022-10-31T03:31:53;7.10;99.90
18794;DHT22;29610;49.022;12.114;2022-10-31T03:34:25;7.30;99.90
18794;DHT22;29610;49.022;12.114;2022-10-31T03:37:02;7.10;99.90
18794;DHT22;29610;49.022;12.114;2022-10-31T03:39:36;7.10;99.90
18794;DHT22;29610;49.022;12.114;2022-10-31T03:42:11;7.00;99.90
18794;DHT22;29610;49.022;12.114;2022-10-31T03:44:46;7.00;99.90
18794;DHT22;29610;49.022;12.114;2022-10-31T03:47:21;7.10;99.90
18794;DHT22;29610;49.022;12.114;2022-10-31T03:49:50;7.00;99.90
18794;DHT22;29610;49.022;12.114;2022-10-31T03:52:25;7.00;99.90
18794;DHT22;29610;49.022;12.114;2022-10-31T03:55:06;7.40;99.90
18794;DHT22;29610;49.022;12.114;2022-10-31T03:57:44;7.10;99.90
18794;DHT22;29610;49.022;12.114;2022-10-31T04:00:17;7.20;99.90
18794;DHT22;29610;49.022;12.114;2022-10-31T04:02:50;7.10;99.90
18794;DHT22;29610;49.022;12.114;2022-10-31T04:05:28;7.10;99.90
18794;DHT22;29610;49.022;12.114;2022-10-31T04:08:06;7.00;99.90
18794;DHT22;29610;49.022;12.114;2022-10-31T04:10:40;7.00;99.90
18794;DHT22;29610;49.022;12.114;2022-10-31T04:13:14;7.00;99.90
18794;DHT22;29610;49.022;12.114;2022-10-31T04:15:56;7.00;99.90
18794;DHT22;29610;49.022;12.114;2022-10-31T04:18:25;7.00;99.90
18794;DHT22;29610;49.022;12.114;2022-10-31T04:21:06;6.90;99.90
18794;DHT22;29610;49.022;12.114;2022-10-31T04:23:37;7.00;99.90
18794;DHT22;29610;49.022;12.114;2022-10-31T04:26:13;6.90;99.90
18794;DHT22;29610;49.022;12.114;2022-10-31T04:28:43;7.00;99.90
18794;DHT22;29610;49.022;12.114;2022-10-31T04:31:12;7.00;99.90
18794;DHT22;29610;49.022;12.114;2022-10-31T04:33:43;7.00;99.90
18794;DHT22;29610;49.022;12.114;2022-10-31T04:36:12;7.00;99.90
18794;DHT22;29610;49.022;12.114;2022-10-31T04:38:43;7.40;99.90
18794;DHT22;29610;49.022;12.114;2022-10-31T04:41:25;7.10;99.90
18794;DHT22;29610;49.022;12.114;2022-10-31T04:44:07;7.30;99.90
18794;DHT22;29610;49.022;12.114;2022-10-31T04:46:36;6.80;99.90
18794;DHT22;29610;49.022;12.114;2022-10-31T04:49:04;7.20;99.90
18794;DHT22;29610;49.022;12.114;2022-10-31T04:51:34;8.70;99.90
18794;DHT22;29610;49.022;12.114;2022-10-31T04:54:05;7.30;99.90
18794;DHT22;29610;49.022;12.114;2022-10-31T04:56:34;7.20;99.90
18794;DHT22;29610;49.022;12.114;2022-10-31T04:59:09;6.50;99.90
18794;DHT22;29610;49.022;12.114;2022-10-31T05:01:46;7.30;99.90
18794;DHT22;29610;49.022;12.114;2022-10-31T05:04:18;7.40;99.90
18794;DHT22;29610;49.022;12.114;2022-10-31T05:06:47;7.40;99.90
18794;DHT22;29610;49.022;12.114;2022-10-31T05:09:17;7.00;99.90
18794;DHT22;29610;49.022;12.114;2022-10-31T05:11:46;7.50;99.90
18794;DHT22;29610;49.022;12.114;2022-10-31T05:14:37;7.40;99.90
18794;DHT22;29610;49.022;12.114;2022-10-31T05:17:28;7.90;99.90
18794;DHT22;29610;49.022;12.114;2022-10-31T05:20:24;7.30;99.90
18794;DHT22;29610;49.022;12.114;2022-10-31T05:23:24;7.30;99.90
18794;DHT22;29610;49.022;12.114;2022-10-31T05:25:55;7.30;99.90
18794;DHT22;29610;49.022;12.114;2022-10-31T05:28:23;7.30;99.90
18794;DHT22;29610;49.022;12.114;2022-10-31T05:30:53;7.30;99.90
18794;DHT22;29610;49.022;12.114;2022-10-31T05:33:21;7.30;99.90
18794;DHT22;29610;49.022;12.114;2022-10-31T05:36:09;7.30;99.90
18794;DHT22;29610;49.022;12.114;2022-10-31T05:38:42;7.30;99.90
18794;DHT22;29610;49.022;12.114;2022-10-31T05:41:21;7.20;99.90
18794;DHT22;29610;49.022;12.114;2022-10-31T05:43:49;7.10;99.90
18794;DHT22;29610;49.022;12.114;2022-10-31T05:46:24;7.10;99.90
18794;DHT22;29610;49.022;12.114;2022-10-31T05:49:11;7.20;99.90
18794;DHT22;29610;49.022;12.114;2022-10-31T05:51:58;7.10;99.90
18794;DHT22;29610;49.022;12.114;2022-10-31T05:54:37;7.10;99.90
18794;DHT22;29610;49.022;12.114;2022-10-31T05:57:07;8.00;99.90
18794;DHT22;29610;49.022;12.114;2022-10-31T05:59:36;7.10;99.90
18794;DHT22;29610;49.022;12.114;2022-10-31T06:02:06;7.00;99.90
18794;DHT22;29610;49.022;12.114;2022-10-31T06:05:14;7.10;99.90
18794;DHT22;29610;49.022;12.114;2022-10-31T06:07:43;7.10;99.90
18794;DHT22;29610;49.022;12.114;2022-10-31T06:10:12;7.10;99.90
18794;DHT22;29610;49.022;12.114;2022-10-31T06:12:42;7.20;99.90
18794;DHT22;29610;49.022;12.114;2022-10-31T06:15:16;7.30;99.90
18794;DHT22;29610;49.022;12.114;2022-10-31T06:18:01;7.40;99.90
18794;DHT22;29610;49.022;12.114;2022-10-31T06:20:41;7.60;99.90
18794;DHT22;29610;49.022;12.114;2022-10-31T06:23:10;7.50;99.90
18794;DHT22;29610;49.022;12.114;2022-10-31T06:25:41;7.60;99.90
18794;DHT22;29610;49.022;12.114;2022-10-31T06:28:12;7.70;99.90
18794;DHT22;29610;49.022;12.114;2022-10-31T06:31:00;7.90;99.90
18794;DHT22;29610;49.022;12.114;2022-10-31T06:33:30;7.90;99.90
18794;DHT22;29610;49.022;12.114;2022-10-31T06:36:01;7.90;99.90
18794;DHT22;29610;49.022;12.114;2022-10-31T06:38:30;8.00;99.90
18794;DHT22;29610;49.022;12.114;2022-10-31T06:41:02;8.10;99.90
18794;DHT22;29610;49.022;12.114;2022-10-31T06:43:46;8.30;99.90
18794;DHT22;29610;49.022;12.114;2022-10-31T06:46:39;8.30;99.90
18794;DHT22;29610;49.022;12.114;2022-10-31T06:49:27;8.40;99.90
18794;DHT22;29610;49.022;12.114;2022-10-31T06:52:00;8.50;99.90
18794;DHT22;29610;49.022;12.114;2022-10-31T06:54:29;8.60;99.90
18794;DHT22;29610;49.022;12.114;2022-10-31T06:56:58;8.80;99.90
18794;DHT22;29610;49.022;12.114;2022-10-31T06:59:29;8.80;99.90
18794;DHT22;29610;49.022;12.114;2022-10-31T07:02:18;8.80;99.90
18794;DHT22;29610;49.022;12.114;2022-10-31T07:04:48;8.90;99.90
18794;DHT22;29610;49.022;12.114;2022-10-31T07:07:17;8.90;99.90
18794;DHT22;29610;49.022;12.114;2022-10-31T07:09:48;9.00;99.90
18794;DHT22;29610;49.022;12.114;2022-10-31T07:12:20;9.00;99.90
18794;DHT22;29610;49.022;12.114;2022-10-31T07:14:57;9.10;99.90
18794;DHT22;29610;49.022;12.114;2022-10-31T07:17:26;9.10;99.90
18794;DHT22;29610;49.022;12.114;2022-10-31T07:19:58;9.20;99.90
18794;DHT22;29610;49.022;12.114;2022-10-31T07:22:33;9.30;99.90
18794;DHT22;29610;49.022;12.114;2022-10-31T07:25:04;9.40;99.90
18794;DHT22;29610;49.022;12.114;2022-10-31T07:27:52;9.50;99.90
18794;DHT22;29610;49.022;12.114;2022-10-31T07:30:22;9.50;99.90
18794;DHT22;29610;49.022;12.114;2022-10-31T07:32:54;9.50;99.90
18794;DHT22;29610;49.022;12.114;2022-10-31T07:35:31;9.60;99.90
18794;DHT22;29610;49.022;12.114;2022-10-31T07:38:09;9.70;99.90
18794;DHT22;29610;49.022;12.114;2022-10-31T07:40:39;9.80;99.90
18794;DHT22;29610;49.022;12.114;2022-10-31T07:43:08;10.00;99.90
18794;DHT22;29610;49.022;12.114;2022-10-31T07:46:05;10.20;99.90
18794;DHT22;29610;49.022;12.114;2022-10-31T07:48:59;10.00;99.90
18794;DHT22;29610;49.022;12.114;2022-10-31T07:51:47;10.00;99.90
18794;DHT22;29610;49.022;12.114;2022-10-31T07:54:33;10.20;99.90
18794;DHT22;29610;49.022;12.114;2022-10-31T07:57:02;10.10;99.90
18794;DHT22;29610;49.022;12.114;2022-10-31T07:59:31;10.20;99.90
18794;DHT22;29610;49.022;12.114;2022-10-31T08:02:01;10.30;99.90
18794;DHT22;29610;49.022;12.114;2022-10-31T08:04:30;10.60;99.90
18794;DHT22;29610;49.022;12.114;2022-10-31T08:07:17;10.60;99.90
18794;DHT22;29610;49.022;12.114;2022-10-31T08:09:53;10.70;99.90
18794;DHT22;29610;49.022;12.114;2022-10-31T08:12:25;11.00;99.90
18794;DHT22;29610;49.022;12.114;2022-10-31T08:14:54;10.80;99.90
18794;DHT22;29610;49.022;12.114;2022-10-31T08:17:24;10.50;99.90
18794;DHT22;29610;49.022;12.114;2022-10-31T08:19:55;10.50;99.90
18794;DHT22;29610;49.022;12.114;2022-10-31T08:22:29;10.90;99.90
18794;DHT22;29610;49.022;12.114;2022-10-31T08:24:58;10.80;99.90
18794;DHT22;29610;49.022;12.114;2022-10-31T08:27:27;10.80;99.90
18794;DHT22;29610;49.022;12.114;2022-10-31T08:29:59;10.90;99.90
18794;DHT22;29610;49.022;12.114;2022-10-31T08:32:29;11.20;99.90
18794;DHT22;29610;49.022;12.114;2022-10-31T08:34:57;11.10;99.90
18794;DHT22;29610;49.022;12.114;2022-10-31T08:37:41;11.80;99.90
18794;DHT22;29610;49.022;12.114;2022-10-31T08:40:11;11.40;99.90
18794;DHT22;29610;49.022;12.114;2022-10-31T08:42:40;11.50;99.90
18794;DHT22;29610;49.022;12.114;2022-10-31T08:45:09;11.50;99.90
18794;DHT22;29610;49.022;12.114;2022-10-31T08:47:39;11.60;99.90
18794;DHT22;29610;49.022;12.114;2022-10-31T08:50:08;11.50;99.90
18794;DHT22;29610;49.022;12.114;2022-10-31T08:52:37;11.40;99.90
18794;DHT22;29610;49.022;12.114;2022-10-31T08:55:26;11.10;99.90
18794;DHT22;29610;49.022;12.114;2022-10-31T08:57:58;11.90;99.90
18794;DHT22;29610;49.022;12.114;2022-10-31T09:00:36;12.00;99.90
18794;DHT22;29610;49.022;12.114;2022-10-31T09:03:14;12.10;99.90
18794;DHT22;29610;49.022;12.114;2022-10-31T09:05:44;12.20;99.90
18794;DHT22;29610;49.022;12.114;2022-10-31T09:08:14;12.30;99.90
18794;DHT22;29610;49.022;12.114;2022-10-31T09:10:46;12.20;99.90
18794;DHT22;29610;49.022;12.114;2022-10-31T09:13:22;12.40;99.90
18794;DHT22;29610;49.022;12.114;2022-10-31T09:16:12;12.60;99.90
18794;DHT22;29610;49.022;12.114;2022-10-31T09:18:44;12.60;99.90
18794;DHT22;29610;49.022;12.114;2022-10-31T09:21:16;12.60;99.90
18794;DHT22;29610;49.022;12.114;2022-10-31T09:23:46;12.60;99.90
18794;DHT22;29610;49.022;12.114;2022-10-31T09:26:15;12.80;99.90
18794;DHT22;29610;49.022;12.114;2022-10-31T09:28:53;12.90;99.90
18794;DHT22;29610;49.022;12.114;2022-10-31T09:31:23;13.00;99.90
18794;DHT22;29610;49.022;12.114;2022-10-31T09:34:02;13.00;99.90
18794;DHT22;29610;49.022;12.114;2022-10-31T09:36:53;13.00;99.90
18794;DHT22;29610;49.022;12.114;2022-10-31T09:39:23;13.20;99.90
18794;DHT22;29610;49.022;12.114;2022-10-31T09:45:21;13.10;99.90
18794;DHT22;29610;49.022;12.114;2022-10-31T09:48:13;13.40;99.90
18794;DHT22;29610;49.022;12.114;2022-10-31T09:51:20;13.50;99.90
18794;DHT22;29610;49.022;12.114;2022-10-31T09:54:20;14.10;99.90
18794;DHT22;29610;49.022;12.114;2022-10-31T09:56:56;14.30;99.90
18794;DHT22;29610;49.022;12.114;2022-10-31T09:59:30;14.10;99.90
18794;DHT22;29610;49.022;12.114;2022-10-31T10:02:04;14.20;99.90
18794;DHT22;29610;49.022;12.114;2022-10-31T10:04:46;14.10;99.90
18794;DHT22;29610;49.022;12.114;2022-10-31T10:07:29;14.10;99.90
18794;DHT22;29610;49.022;12.114;2022-10-31T10:10:27;14.30;99.90
18794;DHT22;29610;49.022;12.114;2022-10-31T10:13:33;14.20;99.90
18794;DHT22;29610;49.022;12.114;2022-10-31T10:16:21;14.30;99.90
18794;DHT22;29610;49.022;12.114;2022-10-31T10:19:10;14.10;99.90
18794;DHT22;29610;49.022;12.114;2022-10-31T10:21:49;14.30;99.90
18794;DHT22;29610;49.022;12.114;2022-10-31T10:24:38;14.40;99.90
18794;DHT22;29610;49.022;12.114;2022-10-31T10:27:25;14.50;99.90
18794;DHT22;29610;49.022;12.114;2022-10-31T10:30:04;14.50;99.90
18794;DHT22;29610;49.022;12.114;2022-10-31T10:32:44;14.70;99.90
18794;DHT22;29610;49.022;12.114;2022-10-31T10:35:27;14.60;99.90
18794;DHT22;29610;49.022;12.114;2022-10-31T10:38:10;14.50;99.90
18794;DHT22;29610;49.022;12.114;2022-10-31T10:40:44;14.70;99.90
18794;DHT22;29610;49.022;12.114;2022-10-31T10:43:21;14.90;99.90
18794;DHT22;29610;49.022;12.114;2022-10-31T10:46:04;15.10;99.90
18794;DHT22;29610;49.022;12.114;2022-10-31T10:49:08;15.10;99.90
18794;DHT22;29610;49.022;12.114;2022-10-31T10:51:46;15.40;99.90
18794;DHT22;29610;49.022;12.114;2022-10-31T10:54:46;15.30;99.90
18794;DHT22;29610;49.022;12.114;2022-10-31T10:57:50;15.30;99.90
18794;DHT22;29610;49.022;12.114;2022-10-31T11:00:25;15.20;99.90
18794;DHT22;29610;49.022;12.114;2022-10-31T11:02:57;15.30;99.90
18794;DHT22;29610;49.022;12.114;2022-10-31T11:05:33;15.40;99.90
18794;DHT22;29610;49.022;12.114;2022-10-31T11:08:05;15.40;99.90
18794;DHT22;29610;49.022;12.114;2022-10-31T11:10:35;15.30;99.90
18794;DHT22;29610;49.022;12.114;2022-10-31T11:13:20;15.50;99.90
18794;DHT22;29610;49.022;12.114;2022-10-31T11:15:55;15.50;99.90
18794;DHT22;29610;49.022;12.114;2022-10-31T11:18:29;15.50;99.90
18794;DHT22;29610;49.022;12.114;2022-10-31T11:21:00;15.50;99.90
18794;DHT22;29610;49.022;12.114;2022-10-31T11:23:32;15.60;99.90
18794;DHT22;29610;49.022;12.114;2022-10-31T11:26:03;15.70;99.90
18794;DHT22;29610;49.022;12.114;2022-10-31T11:28:34;15.80;99.90
18794;DHT22;29610;49.022;12.114;2022-10-31T11:31:07;15.80;99.90
18794;DHT22;29610;49.022;12.114;2022-10-31T11:33:44;16.10;99.90
18794;DHT22;29610;49.022;12.114;2022-10-31T11:36:18;16.30;99.90
18794;DHT22;29610;49.022;12.114;2022-10-31T11:38:51;16.30;99.90
18794;DHT22;29610;49.022;12.114;2022-10-31T11:41:26;16.40;99.90
18794;DHT22;29610;49.022;12.114;2022-10-31T11:43:59;16.40;99.90
18794;DHT22;29610;49.022;12.114;2022-10-31T11:46:33;16.30;99.90
18794;DHT22;29610;49.022;12.114;2022-10-31T11:49:05;16.30;99.90
18794;DHT22;29610;49.022;12.114;2022-10-31T11:51:48;16.00;99.90
18794;DHT22;29610;49.022;12.114;2022-10-31T11:54:23;16.00;99.90
18794;DHT22;29610;49.022;12.114;2022-10-31T11:56:54;16.00;99.90
18794;DHT22;29610;49.022;12.114;2022-10-31T11:59:27;16.10;99.90
18794;DHT22;29610;49.022;12.114;2022-10-31T12:01:59;16.20;99.90
18794;DHT22;29610;49.022;12.114;2022-10-31T12:04:34;16.00;99.90
18794;DHT22;29610;49.022;12.114;2022-10-31T12:07:07;16.00;99.90
18794;DHT22;29610;49.022;12.114;2022-10-31T12:09:38;15.60;99.90
18794;DHT22;29610;49.022;12.114;2022-10-31T12:12:33;16.50;99.90
18794;DHT22;29610;49.022;12.114;2022-10-31T12:15:29;16.40;99.90
18794;DHT22;29610;49.022;12.114;2022-10-31T12:18:23;16.60;99.90
18794;DHT22;29610;49.022;12.114;2022-10-31T12:21:19;16.70;99.90
18794;DHT22;29610;49.022;12.114;2022-10-31T12:24:04;16.80;99.90
18794;DHT22;29610;49.022;12.114;2022-10-31T12:26:48;16.60;99.90
18794;DHT22;29610;49.022;12.114;2022-10-31T12:29:35;16.80;99.90
18794;DHT22;29610;49.022;12.114;2022-10-31T12:32:27;17.00;99.90
18794;DHT22;29610;49.022;12.114;2022-10-31T12:35:18;17.00;99.90
18794;DHT22;29610;49.022;12.114;2022-10-31T12:38:15;16.90;99.90
18794;DHT22;29610;49.022;12.114;2022-10-31T12:41:26;16.80;99.90
18794;DHT22;29610;49.022;12.114;2022-10-31T12:44:20;16.60;99.90
18794;DHT22;29610;49.022;12.114;2022-10-31T12:47:32;16.60;99.90
18794;DHT22;29610;49.022;12.114;2022-10-31T12:50:27;16.40;99.90
18794;DHT22;29610;49.022;12.114;2022-10-31T12:53:16;16.40;99.90
18794;DHT22;29610;49.022;12.114;2022-10-31T12:56:01;16.40;99.90
18794;DHT22;29610;49.022;12.114;2022-10-31T12:58:44;16.60;99.90
18794;DHT22;29610;49.022;12.114;2022-10-31T13:01:18;16.70;99.90
18794;DHT22;29610;49.022;12.114;2022-10-31T13:03:59;16.70;99.90
18794;DHT22;29610;49.022;12.114;2022-10-31T13:06:35;16.70;99.90
18794;DHT22;29610;49.022;12.114;2022-10-31T13:09:15;16.70;99.90
18794;DHT22;29610;49.022;12.114;2022-10-31T13:11:51;16.70;99.90
18794;DHT22;29610;49.022;12.114;2022-10-31T13:14:29;16.60;99.90
18794;DHT22;29610;49.022;12.114;2022-10-31T13:17:02;16.70;99.90
18794;DHT22;29610;49.022;12.114;2022-10-31T13:19:36;16.60;99.90
18794;DHT22;29610;49.022;12.114;2022-10-31T13:22:12;16.60;99.90
18794;DHT22;29610;49.022;12.114;2022-10-31T13:24:50;16.50;99.90
18794;DHT22;29610;49.022;12.114;2022-10-31T13:27:26;16.50;99.90
18794;DHT22;29610;49.022;12.114;2022-10-31T13:30:03;16.40;99.90
18794;DHT22;29610;49.022;12.114;2022-10-31T13:32:40;16.30;99.90
18794;DHT22;29610;49.022;12.114;2022-10-31T13:35:19;16.30;99.90
18794;DHT22;29610;49.022;12.114;2022-10-31T13:38:02;16.20;99.90
18794;DHT22;29610;49.022;12.114;2022-10-31T13:40:44;16.10;99.90
18794;DHT22;29610;49.022;12.114;2022-10-31T13:43:28;16.00;99.90
18794;DHT22;29610;49.022;12.114;2022-10-31T13:46:01;16.00;99.90
18794;DHT22;29610;49.022;12.114;2022-10-31T13:48:38;16.00;99.90
18794;DHT22;29610;49.022;12.114;2022-10-31T13:51:11;16.00;99.90
18794;DHT22;29610;49.022;12.114;2022-10-31T13:53:43;15.90;99.90
18794;DHT22;29610;49.022;12.114;2022-10-31T13:56:21;15.90;99.90
18794;DHT22;29610;49.022;12.114;2022-10-31T13:59:17;15.90;99.90
18794;DHT22;29610;49.022;12.114;2022-10-31T14:01:54;15.90;99.90
18794;DHT22;29610;49.022;12.114;2022-10-31T14:04:26;15.90;99.90
18794;DHT22;29610;49.022;12.114;2022-10-31T14:07:07;15.80;99.90
18794;DHT22;29610;49.022;12.114;2022-10-31T14:09:49;15.90;99.90
18794;DHT22;29610;49.022;12.114;2022-10-31T14:12:26;15.70;99.90
18794;DHT22;29610;49.022;12.114;2022-10-31T14:15:02;15.70;99.90
18794;DHT22;29610;49.022;12.114;2022-10-31T14:17:39;15.60;99.90
18794;DHT22;29610;49.022;12.114;2022-10-31T14:20:38;15.60;99.90
18794;DHT22;29610;49.022;12.114;2022-10-31T14:23:30;15.60;99.90
18794;DHT22;29610;49.022;12.114;2022-10-31T14:26:29;15.60;99.90
18794;DHT22;29610;49.022;12.114;2022-10-31T14:29:01;15.40;99.90
18794;DHT22;29610;49.022;12.114;2022-10-31T14:31:53;15.30;99.90
18794;DHT22;29610;49.022;12.114;2022-10-31T14:34:27;15.20;99.90
18794;DHT22;29610;49.022;12.114;2022-10-31T14:40:17;14.90;99.90
18794;DHT22;29610;49.022;12.114;2022-10-31T14:43:14;14.90;99.90
18794;DHT22;29610;49.022;12.114;2022-10-31T14:45:59;14.90;99.90
18794;DHT22;29610;49.022;12.114;2022-10-31T14:48:54;15.00;99.90
18794;DHT22;29610;49.022;12.114;2022-10-31T14:51:36;15.00;99.90
18794;DHT22;29610;49.022;12.114;2022-10-31T14:54:12;15.00;99.90
18794;DHT22;29610;49.022;12.114;2022-10-31T14:56:48;14.90;99.90
18794;DHT22;29610;49.022;12.114;2022-10-31T14:59:23;14.90;99.90
18794;DHT22;29610;49.022;12.114;2022-10-31T15:01:57;14.90;99.90
18794;DHT22;29610;49.022;12.114;2022-10-31T15:04:29;14.90;99.90
18794;DHT22;29610;49.022;12.114;2022-10-31T15:07:04;14.90;99.90
18794;DHT22;29610;49.022;12.114;2022-10-31T15:09:36;14.80;99.90
18794;DHT22;29610;49.022;12.114;2022-10-31T15:12:23;14.80;99.90
18794;DHT22;29610;49.022;12.114;2022-10-31T15:14:53;14.80;99.90
18794;DHT22;29610;49.022;12.114;2022-10-31T15:17:24;14.70;99.90
18794;DHT22;29610;49.022;12.114;2022-10-31T15:19:54;14.70;99.90
18794;DHT22;29610;49.022;12.114;2022-10-31T15:22:24;14.60;99.90
18794;DHT22;29610;49.022;12.114;2022-10-31T15:24:56;14.40;99.90
18794;DHT22;29610;49.022;12.114;2022-10-31T15:27:27;14.30;99.90
18794;DHT22;29610;49.022;12.114;2022-10-31T15:29:57;14.30;99.90
18794;DHT22;29610;49.022;12.114;2022-10-31T15:32:26;14.20;99.90
18794;DHT22;29610;49.022;12.114;2022-10-31T15:34:56;14.20;99.90
18794;DHT22;29610;49.022;12.114;2022-10-31T15:37:26;14.10;99.90
18794;DHT22;29610;49.022;12.114;2022-10-31T15:39:55;14.00;99.90
18794;DHT22;29610;49.022;12.114;2022-10-31T15:42:40;13.80;99.90
18794;DHT22;29610;49.022;12.114;2022-10-31T15:45:18;13.60;99.90
18794;DHT22;29610;49.022;12.114;2022-10-31T15:47:55;13.40;99.90
18794;DHT22;29610;49.022;12.114;2022-10-31T15:50:31;12.70;99.90
18794;DHT22;29610;49.022;12.114;2022-10-31T15:53:03;13.10;99.90
18794;DHT22;29610;49.022;12.114;2022-10-31T15:55:38;12.90;99.90
18794;DHT22;29610;49.022;12.114;2022-10-31T15:58:17;13.10;99.90
18794;DHT22;29610;49.022;12.114;2022-10-31T16:00:57;12.80;99.90
18794;DHT22;29610;49.022;12.114;2022-10-31T16:03:29;12.60;99.90
18794;DHT22;29610;49.022;12.114;2022-10-31T16:06:01;12.60;99.90
18794;DHT22;29610;49.022;12.114;2022-10-31T16:08:33;12.60;99.90
18794;DHT22;29610;49.022;12.114;2022-10-31T16:11:17;12.50;99.90
18794;DHT22;29610;49.022;12.114;2022-10-31T16:13:57;12.40;99.90
18794;DHT22;29610;49.022;12.114;2022-10-31T16:16:30;12.20;99.90
18794;DHT22;29610;49.022;12.114;2022-10-31T16:19:04;12.40;99.90
18794;DHT22;29610;49.022;12.114;2022-10-31T16:21:39;12.40;99.90
18794;DHT22;29610;49.022;12.114;2022-10-31T16:24:16;12.40;99.90
18794;DHT22;29610;49.022;12.114;2022-10-31T16:26:48;12.40;99.90
18794;DHT22;29610;49.022;12.114;2022-10-31T16:29:27;12.20;99.90
18794;DHT22;29610;49.022;12.114;2022-10-31T16:32:01;12.10;99.90